createdAt,value
2022-10-28T00:01:25.139Z,4.40
2022-10-28T00:03:54.402Z,4.03
2022-10-28T00:06:26.413Z,3.88
2022-10-28T00:08:52.778Z,4.07
2022-10-28T00:11:37.331Z,4.15
2022-10-28T00:14:06.588Z,4.65
2022-10-28T00:16:35.600Z,4.47
2022-10-28T00:19:03.805Z,4.20
2022-10-28T00:21:32.492Z,4.25
2022-10-28T00:23:59.508Z,4.82
2022-10-28T00:26:28.381Z,4.25
2022-10-28T00:29:09.036Z,5.10
2022-10-28T00:31:36.843Z,3.83
2022-10-28T00:34:05.499Z,4.07
2022-10-28T00:36:37.440Z,4.38
2022-10-28T00:39:11.041Z,3.92
2022-10-28T00:41:39.361Z,3.80
2022-10-28T00:44:40.054Z,3.88
2022-10-28T00:47:20.225Z,3.40
2022-10-28T00:49:50.972Z,4.68
2022-10-28T00:52:23.217Z,3.75
2022-10-28T00:54:52.280Z,4.32
2022-10-28T00:57:21.990Z,4.10
2022-10-28T00:59:51.681Z,3.90
2022-10-28T01:02:19.466Z,3.63
2022-10-28T01:04:46.895Z,4.45
2022-10-28T01:07:14.941Z,4.20
2022-10-28T01:09:41.619Z,3.90
2022-10-28T01:12:26.290Z,4.00
2022-10-28T01:15:01.791Z,4.45
2022-10-28T01:17:46.684Z,4.13
2022-10-28T01:20:58.941Z,4.72
2022-10-28T01:23:34.975Z,4.00
2022-10-28T01:26:10.195Z,4.78
2022-10-28T01:29:12.727Z,4.53
2022-10-28T01:31:54.057Z,4.15
2022-10-28T01:34:38.520Z,4.18
2022-10-28T01:37:30.937Z,4.20
2022-10-28T01:40:02.978Z,5.13
2022-10-28T01:42:42.599Z,4.47
2022-10-28T01:45:19.050Z,4.18
2022-10-28T01:48:19.127Z,3.85
2022-10-28T01:51:07.598Z,4.63
2022-10-28T01:53:41.662Z,4.22
2022-10-28T01:56:13.721Z,3.67
2022-10-28T01:58:41.566Z,3.78
2022-10-28T02:01:10.067Z,4.18
2022-10-28T02:03:36.935Z,4.00
2022-10-28T02:06:07.261Z,4.15
2022-10-28T02:08:54.659Z,4.13
2022-10-28T02:11:51.790Z,4.57
2022-10-28T02:14:37.461Z,3.90
2022-10-28T02:17:15.923Z,4.20
2022-10-28T02:19:58.969Z,4.88
2022-10-28T02:22:43.979Z,4.13
2022-10-28T02:25:21.014Z,4.28
2022-10-28T02:28:06.298Z,4.00
2022-10-28T02:30:52.840Z,4.75
2022-10-28T02:33:23.789Z,4.47
2022-10-28T02:35:55.954Z,4.50
2022-10-28T02:38:33.270Z,4.30
2022-10-28T02:41:06.079Z,4.65
2022-10-28T02:43:36.882Z,4.40
2022-10-28T02:46:04.716Z,4.28
2022-10-28T02:48:43.331Z,3.00
2022-10-28T02:51:17.098Z,3.70
2022-10-28T02:53:58.475Z,4.22
2022-10-28T02:56:25.711Z,3.97
2022-10-28T02:58:52.261Z,3.58
2022-10-28T03:01:18.720Z,3.70
2022-10-28T03:03:45.402Z,4.28
2022-10-28T03:06:11.746Z,3.53
2022-10-28T03:08:38.103Z,3.72
2022-10-28T03:11:04.575Z,3.92
2022-10-28T03:13:30.913Z,3.50
2022-10-28T03:15:57.220Z,3.53
2022-10-28T03:18:23.542Z,3.50
2022-10-28T03:20:49.869Z,3.90
2022-10-28T03:23:16.197Z,4.22
2022-10-28T03:25:42.514Z,3.85
2022-10-28T03:28:08.836Z,3.85
2022-10-28T03:30:35.171Z,3.65
2022-10-28T03:33:01.508Z,3.83
2022-10-28T03:35:27.886Z,4.15
2022-10-28T03:37:54.199Z,3.97
2022-10-28T03:40:20.521Z,3.75
2022-10-28T03:42:46.826Z,3.58
2022-10-28T03:45:13.182Z,3.40
2022-10-28T03:47:39.887Z,4.43
2022-10-28T03:50:06.724Z,3.85
2022-10-28T03:52:33.056Z,3.90
2022-10-28T03:54:59.404Z,3.83
2022-10-28T03:57:25.827Z,4.20
2022-10-28T03:59:52.135Z,4.22
2022-10-28T04:02:18.543Z,4.15
2022-10-28T04:04:45.101Z,3.88
2022-10-28T04:07:11.420Z,3.97
2022-10-28T04:09:37.753Z,4.20
2022-10-28T04:14:31.667Z,4.30
2022-10-28T04:16:57.970Z,4.65
2022-10-28T04:19:24.306Z,4.03
2022-10-28T04:21:50.604Z,3.97
2022-10-28T04:24:16.962Z,3.92
2022-10-28T04:26:43.309Z,4.80
2022-10-28T04:29:09.671Z,4.15
2022-10-28T04:31:36.033Z,4.63
2022-10-28T04:34:02.441Z,4.13
2022-10-28T04:36:28.800Z,4.70
2022-10-28T04:38:55.104Z,4.38
2022-10-28T04:41:21.462Z,4.30
2022-10-28T04:43:47.821Z,4.72
2022-10-28T04:46:14.175Z,4.05
2022-10-28T04:48:40.868Z,4.35
2022-10-28T04:51:07.228Z,4.40
2022-10-28T04:53:33.551Z,4.05
2022-10-28T04:55:59.994Z,3.78
2022-10-28T04:58:27.055Z,4.15
2022-10-28T05:00:53.369Z,4.13
2022-10-28T05:03:19.744Z,4.82
2022-10-28T05:05:46.866Z,4.63
2022-10-28T05:08:13.167Z,4.22
2022-10-28T05:10:39.476Z,3.92
2022-10-28T05:13:05.815Z,5.00
2022-10-28T05:15:32.254Z,4.10
2022-10-28T05:17:58.631Z,3.80
2022-10-28T05:20:24.988Z,4.03
2022-10-28T05:22:54.813Z,4.15
2022-10-28T05:25:22.164Z,3.58
2022-10-28T05:27:49.458Z,3.90
2022-10-28T05:30:15.977Z,3.90
2022-10-28T05:32:42.330Z,3.83
2022-10-28T05:35:09.349Z,4.00
2022-10-28T05:37:35.907Z,3.90
2022-10-28T05:40:02.387Z,3.97
2022-10-28T05:42:28.718Z,3.88
2022-10-28T05:44:55.128Z,4.32
2022-10-28T05:47:21.528Z,3.92
2022-10-28T05:49:47.907Z,4.05
2022-10-28T05:52:14.278Z,3.88
2022-10-28T05:54:40.641Z,4.07
2022-10-28T05:57:07.018Z,5.03
2022-10-28T05:59:33.374Z,3.85
2022-10-28T06:01:59.777Z,4.13
2022-10-28T06:04:26.730Z,3.95
2022-10-28T06:06:55.145Z,3.83
2022-10-28T06:09:21.783Z,4.68
2022-10-28T06:11:46.789Z,3.83
2022-10-28T06:14:13.109Z,3.97
2022-10-28T06:16:39.484Z,3.90
2022-10-28T06:19:05.810Z,3.50
2022-10-28T06:21:32.126Z,3.45
2022-10-28T06:23:58.453Z,3.30
2022-10-28T06:26:24.786Z,4.30
2022-10-28T06:28:51.125Z,3.65
2022-10-28T06:31:17.442Z,3.92
2022-10-28T06:33:43.813Z,3.63
2022-10-28T06:36:10.282Z,3.30
2022-10-28T06:38:36.737Z,3.97
2022-10-28T06:41:03.379Z,4.35
2022-10-28T06:43:29.744Z,3.92
2022-10-28T06:46:00.374Z,3.22
2022-10-28T06:48:28.198Z,3.90
2022-10-28T06:50:56.175Z,4.55
2022-10-28T06:53:22.494Z,4.57
2022-10-28T06:55:56.071Z,3.50
2022-10-28T06:58:22.961Z,4.13
2022-10-28T07:00:49.312Z,3.47
2022-10-28T07:03:16.186Z,4.00
2022-10-28T07:05:42.749Z,3.85
2022-10-28T07:08:09.051Z,3.50
2022-10-28T07:10:35.408Z,3.95
2022-10-28T07:13:01.819Z,3.55
2022-10-28T07:15:28.521Z,3.65
2022-10-28T07:17:59.061Z,4.75
2022-10-28T07:20:26.975Z,4.07
2022-10-28T07:23:01.232Z,3.25
2022-10-28T07:25:31.627Z,4.03
2022-10-28T07:27:58.846Z,4.00
2022-10-28T07:30:26.304Z,4.07
2022-10-28T07:32:52.909Z,5.00
2022-10-28T07:35:19.590Z,5.53
2022-10-28T07:37:46.675Z,4.28
2022-10-28T07:40:13.345Z,5.50
2022-10-28T07:42:39.685Z,4.80
2022-10-28T07:45:06.767Z,4.07
2022-10-28T07:47:33.116Z,4.03
2022-10-28T07:49:59.454Z,3.78
2022-10-28T07:52:25.885Z,3.63
2022-10-28T07:54:52.249Z,3.60
2022-10-28T07:57:19.040Z,4.15
2022-10-28T07:59:45.493Z,3.55
2022-10-28T08:02:17.325Z,3.88
2022-10-28T08:04:44.073Z,3.92
2022-10-28T08:07:10.879Z,3.80
2022-10-28T08:09:37.198Z,3.75
2022-10-28T08:12:04.015Z,3.72
2022-10-28T08:14:30.363Z,3.70
2022-10-28T08:16:56.702Z,3.35
2022-10-28T08:19:23.028Z,8.63
2022-10-28T08:21:49.338Z,5.55
2022-10-28T08:24:15.649Z,5.63
2022-10-28T08:26:42.119Z,4.35
2022-10-28T08:29:10.561Z,3.72
2022-10-28T08:31:36.886Z,3.92
2022-10-28T08:34:03.298Z,3.67
2022-10-28T08:36:29.605Z,3.80
2022-10-28T08:38:55.960Z,3.55
2022-10-28T08:41:31.333Z,3.40
2022-10-28T08:44:21.588Z,3.50
2022-10-28T08:47:12.751Z,3.55
2022-10-28T08:49:43.357Z,4.25
2022-10-28T08:52:25.333Z,3.92
2022-10-28T08:54:57.674Z,3.40
2022-10-28T08:57:34.591Z,3.90
2022-10-28T09:00:03.160Z,3.80
2022-10-28T09:02:47.422Z,4.40
2022-10-28T09:05:25.070Z,8.00
2022-10-28T09:07:52.154Z,5.78
2022-10-28T09:10:33.704Z,5.40
2022-10-28T09:13:18.739Z,4.80
2022-10-28T09:16:00.245Z,5.50
2022-10-28T09:18:51.678Z,7.60
2022-10-28T09:21:41.655Z,4.72
2022-10-28T09:24:18.738Z,3.90
2022-10-28T09:26:49.466Z,4.47
2022-10-28T09:29:26.274Z,3.92
2022-10-28T09:32:30.806Z,3.28
2022-10-28T09:35:09.558Z,3.30
2022-10-28T09:37:41.498Z,4.38
2022-10-28T09:40:24.791Z,3.20
2022-10-28T09:43:06.900Z,3.40
2022-10-28T09:45:37.401Z,3.60
2022-10-28T09:48:19.069Z,3.13
2022-10-28T09:50:45.596Z,3.22
2022-10-28T09:53:21.078Z,3.60
2022-10-28T09:55:47.447Z,3.60
2022-10-28T09:58:13.873Z,4.22
2022-10-28T10:00:40.310Z,3.13
2022-10-28T10:03:06.659Z,3.08
2022-10-28T10:05:39.082Z,3.90
2022-10-28T10:08:05.887Z,3.50
2022-10-28T10:10:48.367Z,3.50
2022-10-28T10:13:19.798Z,3.92
2022-10-28T10:15:50.984Z,6.30
2022-10-28T10:18:22.776Z,3.20
2022-10-28T10:20:52.459Z,3.10
2022-10-28T10:23:26.851Z,4.47
2022-10-28T10:26:13.396Z,5.45
2022-10-28T10:28:48.646Z,4.78
2022-10-28T10:31:23.951Z,3.90
2022-10-28T10:33:52.863Z,3.80
2022-10-28T10:36:23.086Z,3.05
2022-10-28T10:38:57.392Z,3.20
2022-10-28T10:41:38.353Z,3.63
2022-10-28T10:44:22.830Z,4.10
2022-10-28T10:46:55.184Z,3.13
2022-10-28T10:49:21.587Z,2.95
2022-10-28T10:51:52.360Z,2.95
2022-10-28T10:54:20.292Z,3.20
2022-10-28T10:56:46.699Z,2.78
2022-10-28T10:59:30.862Z,3.25
2022-10-28T11:01:59.479Z,2.78
2022-10-28T11:04:28.295Z,3.03
2022-10-28T11:06:56.843Z,2.83
2022-10-28T11:09:50.280Z,3.33
2022-10-28T11:12:31.905Z,3.13
2022-10-28T11:15:04.238Z,3.00
2022-10-28T11:20:38.126Z,2.67
2022-10-28T11:23:12.152Z,2.63
2022-10-28T11:25:45.160Z,3.33
2022-10-28T11:28:39.527Z,2.85
2022-10-28T11:31:32.058Z,2.92
2022-10-28T11:34:19.964Z,3.08
2022-10-28T11:37:09.492Z,2.63
2022-10-28T11:40:00.052Z,3.08
2022-10-28T11:42:43.887Z,3.00
2022-10-28T11:45:28.561Z,2.47
2022-10-28T11:48:17.874Z,2.75
2022-10-28T11:51:03.080Z,2.85
2022-10-28T11:53:37.023Z,2.75
2022-10-28T11:56:15.315Z,2.55
2022-10-28T11:59:17.149Z,3.15
2022-10-28T12:02:02.193Z,2.60
2022-10-28T12:04:34.559Z,3.13
2022-10-28T12:07:19.560Z,2.42
2022-10-28T12:10:13.966Z,3.55
2022-10-28T12:13:11.290Z,2.47
2022-10-28T12:15:59.575Z,3.00
2022-10-28T12:18:47.145Z,2.97
2022-10-28T12:21:18.418Z,2.40
2022-10-28T12:23:46.406Z,2.75
2022-10-28T12:26:16.859Z,2.90
2022-10-28T12:28:49.830Z,2.83
2022-10-28T12:31:32.317Z,3.15
2022-10-28T12:34:05.961Z,2.67
2022-10-28T12:36:58.425Z,3.13
2022-10-28T12:39:26.909Z,2.83
2022-10-28T12:42:02.162Z,2.88
2022-10-28T12:44:29.418Z,2.95
2022-10-28T12:47:26.215Z,2.25
2022-10-28T12:50:07.815Z,2.83
2022-10-28T12:53:02.181Z,2.88
2022-10-28T12:55:51.183Z,2.90
2022-10-28T12:58:26.939Z,2.97
2022-10-28T13:00:58.138Z,2.60
2022-10-28T13:03:24.494Z,3.67
2022-10-28T13:06:24.235Z,3.55
2022-10-28T13:09:12.432Z,3.72
2022-10-28T13:11:47.818Z,3.13
2022-10-28T13:14:38.422Z,3.45
2022-10-28T13:17:26.454Z,2.80
2022-10-28T13:20:23.794Z,3.45
2022-10-28T13:23:18.497Z,2.65
2022-10-28T13:25:52.935Z,2.72
2022-10-28T13:28:21.605Z,3.03
2022-10-28T13:30:55.685Z,2.88
2022-10-28T13:33:25.738Z,2.75
2022-10-28T13:38:26.961Z,3.80
2022-10-28T13:43:49.534Z,2.53
2022-10-28T13:46:53.386Z,2.25
2022-10-28T13:49:25.589Z,3.10
2022-10-28T13:52:19.566Z,3.00
2022-10-28T13:54:45.838Z,2.10
2022-10-28T13:57:30.119Z,2.85
2022-10-28T13:59:59.466Z,2.78
2022-10-28T14:02:40.703Z,2.67
2022-10-28T14:05:13.209Z,2.65
2022-10-28T14:08:04.749Z,2.72
2022-10-28T14:10:38.136Z,2.80
2022-10-28T14:13:18.521Z,2.47
2022-10-28T14:15:45.553Z,2.40
2022-10-28T14:18:42.905Z,2.67
2022-10-28T14:21:02.076Z,2.72
2022-10-28T14:23:36.324Z,2.75
2022-10-28T14:26:05.134Z,1.92
2022-10-28T14:28:31.480Z,2.70
2022-10-28T14:31:12.973Z,3.25
2022-10-28T14:33:42.263Z,3.35
2022-10-28T14:36:17.741Z,2.85
2022-10-28T14:38:53.324Z,2.92
2022-10-28T14:41:41.707Z,2.40
2022-10-28T14:44:25.437Z,2.40
2022-10-28T14:47:17.181Z,3.08
2022-10-28T14:49:59.344Z,2.67
2022-10-28T14:52:28.281Z,2.67
2022-10-28T14:55:01.898Z,2.67
2022-10-28T14:57:33.696Z,2.63
2022-10-28T15:00:08.561Z,2.70
2022-10-28T15:02:37.707Z,2.30
2022-10-28T15:05:25.521Z,2.42
2022-10-28T15:07:52.572Z,4.00
2022-10-28T15:10:39.432Z,2.70
2022-10-28T15:13:17.968Z,2.40
2022-10-28T15:15:53.670Z,2.63
2022-10-28T15:18:22.653Z,2.03
2022-10-28T15:20:49.975Z,3.58
2022-10-28T15:23:21.999Z,2.80
2022-10-28T15:26:14.262Z,2.75
2022-10-28T15:28:41.876Z,2.42
2022-10-28T15:31:09.028Z,2.75
2022-10-28T15:33:42.651Z,2.95
2022-10-28T15:36:18.244Z,2.35
2022-10-28T15:39:17.474Z,2.55
2022-10-28T15:41:45.834Z,2.40
2022-10-28T15:44:31.894Z,3.20
2022-10-28T15:46:59.344Z,2.15
2022-10-28T15:49:37.964Z,3.70
2022-10-28T15:52:16.479Z,2.42
2022-10-28T15:54:53.525Z,3.15
2022-10-28T15:57:26.101Z,2.55
2022-10-28T16:00:23.227Z,2.80
2022-10-28T16:02:57.682Z,3.45
2022-10-28T16:05:33.233Z,2.88
2022-10-28T16:08:01.698Z,3.10
2022-10-28T16:10:36.623Z,3.60
2022-10-28T16:13:09.026Z,3.10
2022-10-28T16:15:48.353Z,3.40
2022-10-28T16:18:15.311Z,3.03
2022-10-28T16:20:43.907Z,3.25
2022-10-28T16:23:19.378Z,2.65
2022-10-28T16:25:45.823Z,2.90
2022-10-28T16:28:25.233Z,2.88
2022-10-28T16:30:54.749Z,2.63
2022-10-28T16:33:34.264Z,2.50
2022-10-28T16:36:02.463Z,2.90
2022-10-28T16:38:31.035Z,2.55
2022-10-28T16:40:59.671Z,3.20
2022-10-28T16:43:27.976Z,2.90
2022-10-28T16:45:56.596Z,3.42
2022-10-28T16:48:25.075Z,3.75
2022-10-28T16:50:54.396Z,3.35
2022-10-28T16:53:21.340Z,4.13
2022-10-28T16:55:48.394Z,3.90
2022-10-28T16:58:14.943Z,3.78
2022-10-28T17:00:41.752Z,3.78
2022-10-28T17:03:12.853Z,3.35
2022-10-28T17:08:07.372Z,2.83
2022-10-28T17:10:36.792Z,3.50
2022-10-28T17:13:03.155Z,2.95
2022-10-28T17:15:29.517Z,3.15
2022-10-28T17:17:57.859Z,3.22
2022-10-28T17:20:24.192Z,3.30
2022-10-28T17:22:50.536Z,2.95
2022-10-28T17:25:16.904Z,3.15
2022-10-28T17:27:48.162Z,3.30
2022-10-28T17:30:17.893Z,3.90
2022-10-28T17:32:45.324Z,3.88
2022-10-28T17:35:11.745Z,4.18
2022-10-28T17:37:38.122Z,9.95
2022-10-28T17:40:05.105Z,7.68
2022-10-28T17:42:31.428Z,6.43
2022-10-28T17:44:57.751Z,5.18
2022-10-28T17:47:24.188Z,4.60
2022-10-28T17:49:50.515Z,4.20
2022-10-28T17:52:16.832Z,4.43
2022-10-28T17:54:45.025Z,4.20
2022-10-28T17:57:11.681Z,4.00
2022-10-28T17:59:38.073Z,4.53
2022-10-28T18:02:04.981Z,4.20
2022-10-28T18:04:31.452Z,4.05
2022-10-28T18:06:58.068Z,3.85
2022-10-28T18:09:24.433Z,3.90
2022-10-28T18:11:50.858Z,4.60
2022-10-28T18:14:17.958Z,4.35
2022-10-28T18:16:45.857Z,4.30
2022-10-28T18:19:13.466Z,4.03
2022-10-28T18:21:39.861Z,4.15
2022-10-28T18:24:06.845Z,4.63
2022-10-28T18:26:36.280Z,4.40
2022-10-28T18:29:04.024Z,4.75
2022-10-28T18:31:33.214Z,4.68
2022-10-28T18:34:00.877Z,5.10
2022-10-28T18:36:30.575Z,4.50
2022-10-28T18:38:57.668Z,5.30
2022-10-28T18:41:26.729Z,5.22
2022-10-28T18:43:57.274Z,5.65
2022-10-28T18:46:25.377Z,6.25
2022-10-28T18:48:52.023Z,6.00
2022-10-28T18:51:18.722Z,6.55
2022-10-28T18:53:47.896Z,5.13
2022-10-28T18:56:22.778Z,6.03
2022-10-28T18:58:51.287Z,5.85
2022-10-28T19:01:28.568Z,5.47
2022-10-28T19:03:57.647Z,5.70
2022-10-28T19:06:26.059Z,5.47
2022-10-28T19:08:54.431Z,5.57
2022-10-28T19:11:22.649Z,5.65
2022-10-28T19:13:49.282Z,5.93
2022-10-28T19:16:15.674Z,6.18
2022-10-28T19:18:42.046Z,6.22
2022-10-28T19:21:12.811Z,6.25
2022-10-28T19:23:39.973Z,5.68
2022-10-28T19:26:07.148Z,5.82
2022-10-28T19:28:39.517Z,4.88
2022-10-28T19:31:08.442Z,5.18
2022-10-28T19:33:35.487Z,5.47
2022-10-28T19:36:07.305Z,5.68
2022-10-28T19:38:35.923Z,5.32
2022-10-28T19:41:08.099Z,4.63
2022-10-28T19:43:35.313Z,5.40
2022-10-28T19:46:18.128Z,4.75
2022-10-28T19:48:47.287Z,4.60
2022-10-28T19:51:16.383Z,4.20
2022-10-28T19:53:57.356Z,5.13
2022-10-28T19:56:24.260Z,4.68
2022-10-28T19:58:53.306Z,4.60
2022-10-28T20:01:21.956Z,4.18
2022-10-28T20:03:50.008Z,5.10
2022-10-28T20:06:18.005Z,4.60
2022-10-28T20:08:46.433Z,4.30
2022-10-28T20:11:15.149Z,4.80
2022-10-28T20:13:42.241Z,4.63
2022-10-28T20:16:13.921Z,4.50
2022-10-28T20:18:40.714Z,4.60
2022-10-28T20:21:18.193Z,5.00
2022-10-28T20:23:46.503Z,5.35
2022-10-28T20:26:13.499Z,5.20
2022-10-28T20:28:40.141Z,5.50
2022-10-28T20:31:09.384Z,4.85
2022-10-28T20:33:38.337Z,5.15
2022-10-28T20:36:05.986Z,5.35
2022-10-28T20:38:32.366Z,5.57
2022-10-28T20:41:00.544Z,5.30
2022-10-28T20:43:29.117Z,5.03
2022-10-28T20:45:59.352Z,5.25
2022-10-28T20:48:27.746Z,5.23
2022-10-28T20:50:56.268Z,5.70
2022-10-28T20:53:24.841Z,5.25
2022-10-28T20:55:53.100Z,4.82
2022-10-28T20:58:21.558Z,4.72
2022-10-28T21:00:48.443Z,4.07
2022-10-28T21:03:15.493Z,3.85
2022-10-28T21:05:43.279Z,3.55
2022-10-28T21:08:11.043Z,4.05
2022-10-28T21:10:38.525Z,3.72
2022-10-28T21:13:05.469Z,3.38
2022-10-28T21:15:39.485Z,3.50
2022-10-28T21:18:07.544Z,3.40
2022-10-28T21:20:38.123Z,2.40
2022-10-28T21:23:05.623Z,3.10
2022-10-28T21:25:32.783Z,2.75
2022-10-28T21:27:59.933Z,2.97
2022-10-28T21:30:27.043Z,3.35
2022-10-28T21:32:53.947Z,3.20
2022-10-28T21:35:20.652Z,2.85
2022-10-28T21:37:47.013Z,3.03
2022-10-28T21:40:13.703Z,2.75
2022-10-28T21:42:40.143Z,3.20
2022-10-28T21:45:07.640Z,2.90
2022-10-28T21:47:34.606Z,2.83
2022-10-28T21:50:01.141Z,2.58
2022-10-28T21:52:27.566Z,2.63
2022-10-28T21:54:54.020Z,2.75
2022-10-28T21:57:20.508Z,2.95
2022-10-28T21:59:49.509Z,2.85
2022-10-28T22:02:16.190Z,3.42
2022-10-28T22:04:42.609Z,4.22
2022-10-28T22:07:09.034Z,3.55
2022-10-28T22:09:37.506Z,2.78
2022-10-28T22:12:04.250Z,3.75
2022-10-28T22:14:30.582Z,3.20
2022-10-28T22:16:56.891Z,3.60
2022-10-28T22:19:23.304Z,3.70
2022-10-28T22:21:49.693Z,3.17
2022-10-28T22:24:16.091Z,3.15
2022-10-28T22:26:42.399Z,2.85
2022-10-28T22:29:08.904Z,3.80
2022-10-28T22:31:35.588Z,3.47
2022-10-28T22:34:02.298Z,3.20
2022-10-28T22:36:30.044Z,3.80
2022-10-28T22:38:56.771Z,3.90
2022-10-28T22:41:25.852Z,3.45
2022-10-28T22:44:00.662Z,3.65
2022-10-28T22:46:30.815Z,3.90
2022-10-28T22:48:57.402Z,4.00
2022-10-28T22:51:23.848Z,4.13
2022-10-28T22:53:50.608Z,3.90
2022-10-28T22:56:22.653Z,3.72
2022-10-28T22:58:52.776Z,4.20
2022-10-28T23:01:20.477Z,4.43
2022-10-28T23:03:51.107Z,3.60
2022-10-28T23:06:19.949Z,3.47
2022-10-28T23:08:46.606Z,4.05
2022-10-28T23:11:16.620Z,3.78
2022-10-28T23:13:43.555Z,3.80
2022-10-28T23:16:12.078Z,3.65
2022-10-28T23:18:38.816Z,3.40
2022-10-28T23:21:18.205Z,3.72
2022-10-28T23:23:51.216Z,3.67
2022-10-28T23:26:21.038Z,4.13
2022-10-28T23:28:54.798Z,4.70
2022-10-28T23:31:22.343Z,3.92
2022-10-28T23:33:49.471Z,4.95
2022-10-28T23:36:16.413Z,4.15
2022-10-28T23:38:42.911Z,4.65
2022-10-28T23:41:13.643Z,4.47
2022-10-28T23:43:39.982Z,4.20
2022-10-28T23:46:06.367Z,4.60
2022-10-28T23:48:33.060Z,4.18
2022-10-28T23:50:59.448Z,4.20
2022-10-28T23:55:53.550Z,4.80
2022-10-28T23:58:21.598Z,4.30
